Time,TemperatureF,DewpointF,PressureIn,WindDirection,WindDirectionDegrees,WindSpeedMPH,WindSpeedGustMPH,Humidity,HourlyPrecipIn,Conditions,Clouds,dailyrainin,SoftwareType,DateUTC
2013-10-26 15:12:00,46.0,30.0,29.72,NW,315,12.0,19.0,53,0.00,,,0.00,,2013-10-26 20:12:00,
2013-10-26 15:22:00,45.0,30.0,29.74,NW,320,11.0,20.0,56,0.00,,,0.00,,2013-10-26 20:22:00,
2013-10-26 15:43:00,46.0,29.0,29.74,NNW,329,12.0,22.0,52,0.00,,,0.00,,2013-10-26 20:43:00,
2013-10-26 15:52:00,46.0,29.0,29.74,NNW,329,12.0,22.0,52,0.00,,,0.00,,2013-10-26 20:52:00,
2013-10-26 16:02:00,46.0,29.0,29.74,NNW,329,12.0,22.0,52,0.00,,,0.00,,2013-10-26 21:02:00,
2013-10-26 16:11:00,46.0,29.0,29.74,NNW,329,12.0,22.0,52,0.00,,,0.00,,2013-10-26 21:11:00,
2013-10-26 16:22:00,45.0,27.0,29.77,NW,323,13.0,24.0,49,0.00,,,0.00,,2013-10-26 21:22:00,
2013-10-26 16:43:00,44.0,26.0,29.77,NW,321,12.0,24.0,49,0.00,,,0.00,,2013-10-26 21:43:00,
2013-10-26 16:55:00,44.0,26.0,29.77,NW,321,12.0,24.0,49,0.00,,,0.00,,2013-10-26 21:55:00,
2013-10-26 17:14:00,45.0,27.0,29.79,NNW,334,14.0,27.0,48,0.00,,,0.00,,2013-10-26 22:14:00,
2013-10-26 17:24:00,44.0,26.0,29.78,NNW,330,14.0,22.0,49,0.00,,,0.00,,2013-10-26 22:24:00,
2013-10-26 17:53:00,43.0,26.0,29.80,NNW,337,9.0,18.0,50,0.00,,,0.00,,2013-10-26 22:53:00,
2013-10-26 18:03:00,43.0,26.0,29.80,NNW,337,9.0,18.0,50,0.00,,,0.00,,2013-10-26 23:03:00,
2013-10-26 18:12:00,43.0,26.0,29.80,NNW,337,9.0,18.0,50,0.00,,,0.00,,2013-10-26 23:12:00,
2013-10-26 18:22:00,42.0,25.0,29.82,NNW,346,7.0,14.0,50,0.00,,,0.00,,2013-10-26 23:22:00,
2013-10-26 18:42:00,42.0,25.0,29.83,North,350,7.0,18.0,51,0.00,,,0.00,,2013-10-26 23:42:00,
2013-10-26 18:52:00,42.0,25.0,29.83,NNW,348,7.0,17.0,50,0.00,,,0.00,,2013-10-26 23:52:00,
2013-10-26 19:12:00,42.0,24.0,29.84,NNW,341,10.0,25.0,49,0.00,,,0.00,,2013-10-27 00:12:00,
2013-10-26 19:21:00,42.0,24.0,29.85,NNW,343,8.0,20.0,48,0.00,,,0.00,,2013-10-27 00:21:00,
2013-10-26 19:32:00,42.0,24.0,29.85,NNW,343,8.0,20.0,48,0.00,,,0.00,,2013-10-27 00:32:00,
2013-10-26 19:42:00,42.0,24.0,29.85,NNW,343,8.0,20.0,48,0.00,,,0.00,,2013-10-27 00:42:00,
2013-10-26 19:52:00,42.0,25.0,29.85,NNW,335,8.0,18.0,50,0.00,,,0.00,,2013-10-27 00:52:00,
2013-10-26 20:11:00,42.0,24.0,29.86,NNW,343,7.0,19.0,48,0.00,,,0.00,,2013-10-27 01:11:00,
2013-10-26 20:22:00,42.0,24.0,29.86,NNW,343,7.0,19.0,48,0.00,,,0.00,,2013-10-27 01:22:00,
2013-10-26 20:32:00,42.0,24.0,29.86,NNW,343,7.0,19.0,48,0.00,,,0.00,,2013-10-27 01:32:00,
2013-10-26 20:42:00,42.0,24.0,29.86,NNW,343,7.0,19.0,48,0.00,,,0.00,,2013-10-27 01:42:00,